createdAt,value
2022-11-09T00:00:30.442Z,8.37
2022-11-09T00:15:25.397Z,8.23
2022-11-09T00:30:24.325Z,7.80
2022-11-09T00:45:24.367Z,8.37
2022-11-09T01:00:33.398Z,8.23
2022-11-09T01:15:24.245Z,8.20
2022-11-09T01:30:24.239Z,8.12
2022-11-09T01:45:33.247Z,8.15
2022-11-09T02:00:36.052Z,8.10
2022-11-09T02:15:23.496Z,8.12
2022-11-09T02:30:28.575Z,8.23
2022-11-09T02:45:23.416Z,8.25
2022-11-09T03:00:25.240Z,8.47
2022-11-09T03:15:23.568Z,8.38
2022-11-09T03:30:25.482Z,8.45
2022-11-09T03:45:23.353Z,8.57
2022-11-09T04:00:29.295Z,8.50
2022-11-09T04:15:23.573Z,8.85
2022-11-09T04:30:23.804Z,8.57
2022-11-09T04:45:23.645Z,8.55
2022-11-09T05:00:36.497Z,8.60
2022-11-09T05:15:23.635Z,8.62
2022-11-09T05:30:23.651Z,8.60
2022-11-09T05:45:41.326Z,8.75
2022-11-09T06:00:29.667Z,8.73
2022-11-09T06:15:23.963Z,8.73
2022-11-09T06:30:24.048Z,8.75
2022-11-09T06:45:23.928Z,8.80
2022-11-09T07:00:40.250Z,8.82
2022-11-09T07:15:24.004Z,8.93
2022-11-09T07:30:23.957Z,8.95
2022-11-09T07:45:23.616Z,9.12
2022-11-09T08:00:28.506Z,9.60
2022-11-09T08:15:24.199Z,9.88
2022-11-09T08:30:26.421Z,10.00
2022-11-09T08:45:24.105Z,10.20
2022-11-09T09:00:26.898Z,10.20
2022-11-09T09:15:24.125Z,10.38
2022-11-09T09:30:24.362Z,10.57
2022-11-09T09:45:24.521Z,11.07
2022-11-09T10:00:38.742Z,11.27
2022-11-09T10:15:24.764Z,11.77
2022-11-09T10:30:24.465Z,12.02
2022-11-09T10:45:23.864Z,12.40
2022-11-09T11:00:31.826Z,12.73
2022-11-09T11:15:24.262Z,12.88
2022-11-09T11:30:26.206Z,12.95
2022-11-09T11:45:40.062Z,13.10
2022-11-09T12:00:24.346Z,13.38
2022-11-09T12:15:24.281Z,13.40
2022-11-09T12:30:24.562Z,13.48
2022-11-09T12:45:23.963Z,13.93
2022-11-09T13:00:33.079Z,13.90
2022-11-09T13:15:24.244Z,13.83
2022-11-09T13:30:30.261Z,13.68
2022-11-09T13:45:24.231Z,13.68
2022-11-09T14:00:27.447Z,13.68
2022-11-09T14:15:23.600Z,13.55
2022-11-09T14:30:31.858Z,13.47
2022-11-09T14:45:23.361Z,13.32
2022-11-09T15:00:26.779Z,13.50
2022-11-09T15:15:24.403Z,13.15
2022-11-09T15:30:28.576Z,13.07
2022-11-09T15:45:23.895Z,13.02
2022-11-09T16:00:34.415Z,12.90
2022-11-09T16:15:23.528Z,12.70
2022-11-09T16:30:27.516Z,12.65
2022-11-09T16:45:25.944Z,12.60
2022-11-09T17:00:37.638Z,12.60
2022-11-09T17:15:23.714Z,12.52
2022-11-09T17:30:23.925Z,12.63
2022-11-09T17:45:24.200Z,12.50
2022-11-09T18:00:24.918Z,12.45
2022-11-09T18:15:24.098Z,12.38
2022-11-09T18:30:24.060Z,12.33
2022-11-09T18:45:24.073Z,12.23
2022-11-09T19:00:25.492Z,12.17
2022-11-09T19:15:23.824Z,12.30
2022-11-09T19:30:25.756Z,12.33
2022-11-09T19:45:23.849Z,12.40
2022-11-09T20:00:26.167Z,12.33
2022-11-09T20:15:24.063Z,12.27
2022-11-09T20:30:24.233Z,12.25
2022-11-09T20:45:24.383Z,12.17
2022-11-09T21:00:31.684Z,12.23
2022-11-09T21:15:25.810Z,12.27
2022-11-09T21:30:27.052Z,12.05
2022-11-09T21:45:25.265Z,12.17
2022-11-09T22:00:26.953Z,12.02
2022-11-09T22:15:24.116Z,11.88
2022-11-09T22:30:24.505Z,11.98
2022-11-09T22:45:24.411Z,11.97
2022-11-09T23:00:37.687Z,12.50
2022-11-09T23:15:24.578Z,11.67
2022-11-09T23:30:24.541Z,11.52
2022-11-09T23:45:24.458Z,11.48
